sensor_id;sensor_type;location;lat;lon;timestamp;P1;durP1;ratioP1;P2;durP2;ratioP2
69765;SDS011;57039;48.014;21.384;2023-03-01T00:00:23;19.73;;;11.10;;
69765;SDS011;57039;48.014;21.384;2023-03-01T00:01:29;22.00;;;11.27;;
69765;SDS011;57039;48.014;21.384;2023-03-01T00:02:33;20.53;;;10.60;;
69765;SDS011;57039;48.014;21.384;2023-03-01T00:03:36;20.92;;;11.52;;
69765;SDS011;57039;48.014;21.384;2023-03-01T00:04:39;19.10;;;10.23;;
69765;SDS011;57039;48.014;21.384;2023-03-01T00:05:46;19.42;;;11.50;;
69765;SDS011;57039;48.014;21.384;2023-03-01T00:06:49;19.73;;;10.77;;
69765;SDS011;57039;48.014;21.384;2023-03-01T00:07:53;18.65;;;9.90;;
69765;SDS011;57039;48.014;21.384;2023-03-01T00:08:56;20.67;;;9.32;;
69765;SDS011;57039;48.014;21.384;2023-03-01T00:09:59;22.00;;;10.10;;
69765;SDS011;57039;48.014;21.384;2023-03-01T00:11:04;17.17;;;9.82;;
69765;SDS011;57039;48.014;21.384;2023-03-01T00:12:13;18.07;;;8.77;;
69765;SDS011;57039;48.014;21.384;2023-03-01T00:13:15;19.47;;;9.80;;
69765;SDS011;57039;48.014;21.384;2023-03-01T00:14:18;21.45;;;10.13;;
69765;SDS011;57039;48.014;21.384;2023-03-01T00:15:21;20.40;;;10.05;;
69765;SDS011;57039;48.014;21.384;2023-03-01T00:16:25;18.20;;;10.13;;
69765;SDS011;57039;48.014;21.384;2023-03-01T00:17:33;17.67;;;9.18;;
69765;SDS011;57039;48.014;21.384;2023-03-01T00:18:37;19.67;;;10.02;;
69765;SDS011;57039;48.014;21.384;2023-03-01T00:19:40;20.33;;;10.50;;
69765;SDS011;57039;48.014;21.384;2023-03-01T00:20:49;19.95;;;10.60;;
69765;SDS011;57039;48.014;21.384;2023-03-01T00:21:55;18.25;;;10.32;;
69765;SDS011;57039;48.014;21.384;2023-03-01T00:22:58;21.67;;;9.93;;
69765;SDS011;57039;48.014;21.384;2023-03-01T00:24:01;24.43;;;10.43;;
69765;SDS011;57039;48.014;21.384;2023-03-01T00:25:05;20.48;;;11.50;;
69765;SDS011;57039;48.014;21.384;2023-03-01T00:26:09;20.15;;;10.13;;
69765;SDS011;57039;48.014;21.384;2023-03-01T00:27:14;17.05;;;9.00;;
69765;SDS011;57039;48.014;21.384;2023-03-01T00:28:18;19.62;;;10.55;;
69765;SDS011;57039;48.014;21.384;2023-03-01T00:29:22;18.17;;;10.00;;
69765;SDS011;57039;48.014;21.384;2023-03-01T00:30:28;21.23;;;10.30;;
69765;SDS011;57039;48.014;21.384;2023-03-01T00:31:31;19.85;;;10.63;;
69765;SDS011;57039;48.014;21.384;2023-03-01T00:32:35;20.88;;;10.15;;
69765;SDS011;57039;48.014;21.384;2023-03-01T00:33:38;18.77;;;9.80;;
69765;SDS011;57039;48.014;21.384;2023-03-01T00:34:41;17.23;;;9.63;;
69765;SDS011;57039;48.014;21.384;2023-03-01T00:35:44;17.20;;;9.77;;
69765;SDS011;57039;48.014;21.384;2023-03-01T00:36:47;19.08;;;10.18;;
69765;SDS011;57039;48.014;21.384;2023-03-01T00:37:51;19.20;;;10.18;;
69765;SDS011;57039;48.014;21.384;2023-03-01T00:39:01;22.87;;;10.85;;
69765;SDS011;57039;48.014;21.384;2023-03-01T00:40:07;25.95;;;13.48;;
69765;SDS011;57039;48.014;21.384;2023-03-01T00:41:14;27.20;;;14.25;;
69765;SDS011;57039;48.014;21.384;2023-03-01T00:42:19;38.08;;;17.98;;
69765;SDS011;57039;48.014;21.384;2023-03-01T00:43:21;30.42;;;17.02;;
69765;SDS011;57039;48.014;21.384;2023-03-01T00:44:24;27.40;;;15.10;;
69765;SDS011;57039;48.014;21.384;2023-03-01T00:45:27;30.73;;;14.23;;
69765;SDS011;57039;48.014;21.384;2023-03-01T00:46:31;23.65;;;12.25;;
69765;SDS011;57039;48.014;21.384;2023-03-01T00:47:35;24.30;;;12.23;;
69765;SDS011;57039;48.014;21.384;2023-03-01T00:48:39;22.52;;;12.00;;
69765;SDS011;57039;48.014;21.384;2023-03-01T00:49:42;22.77;;;11.40;;
69765;SDS011;57039;48.014;21.384;2023-03-01T00:50:45;20.70;;;11.40;;
69765;SDS011;57039;48.014;21.384;2023-03-01T00:51:48;19.52;;;11.45;;
69765;SDS011;57039;48.014;21.384;2023-03-01T00:52:54;19.35;;;10.77;;
69765;SDS011;57039;48.014;21.384;2023-03-01T00:53:59;18.85;;;11.15;;
69765;SDS011;57039;48.014;21.384;2023-03-01T00:55:04;21.87;;;11.50;;
69765;SDS011;57039;48.014;21.384;2023-03-01T00:56:09;22.30;;;10.97;;
69765;SDS011;57039;48.014;21.384;2023-03-01T00:57:13;22.95;;;11.30;;
69765;SDS011;57039;48.014;21.384;2023-03-01T00:58:16;22.00;;;10.85;;
69765;SDS011;57039;48.014;21.384;2023-03-01T00:59:18;19.85;;;11.18;;
69765;SDS011;57039;48.014;21.384;2023-03-01T01:00:22;20.73;;;10.20;;
69765;SDS011;57039;48.014;21.384;2023-03-01T01:01:26;20.62;;;10.55;;
69765;SDS011;57039;48.014;21.384;2023-03-01T01:02:34;21.33;;;10.38;;
69765;SDS011;57039;48.014;21.384;2023-03-01T01:03:38;21.15;;;10.50;;
69765;SDS011;57039;48.014;21.384;2023-03-01T01:04:41;20.27;;;10.38;;
69765;SDS011;57039;48.014;21.384;2023-03-01T01:05:45;19.30;;;10.30;;
69765;SDS011;57039;48.014;21.384;2023-03-01T01:06:47;22.23;;;10.47;;
69765;SDS011;57039;48.014;21.384;2023-03-01T01:07:50;18.55;;;9.75;;
69765;SDS011;57039;48.014;21.384;2023-03-01T01:08:53;18.92;;;10.35;;
69765;SDS011;57039;48.014;21.384;2023-03-01T01:09:57;18.45;;;10.05;;
69765;SDS011;57039;48.014;21.384;2023-03-01T01:11:01;19.45;;;9.90;;
69765;SDS011;57039;48.014;21.384;2023-03-01T01:12:04;17.45;;;9.00;;
69765;SDS011;57039;48.014;21.384;2023-03-01T01:13:07;19.12;;;10.05;;
69765;SDS011;57039;48.014;21.384;2023-03-01T01:14:10;17.65;;;9.20;;
69765;SDS011;57039;48.014;21.384;2023-03-01T01:15:13;18.37;;;9.65;;
69765;SDS011;57039;48.014;21.384;2023-03-01T01:16:18;18.07;;;9.30;;
69765;SDS011;57039;48.014;21.384;2023-03-01T01:17:23;20.30;;;10.47;;
69765;SDS011;57039;48.014;21.384;2023-03-01T01:18:28;17.60;;;10.02;;
69765;SDS011;57039;48.014;21.384;2023-03-01T01:19:31;18.60;;;10.38;;
69765;SDS011;57039;48.014;21.384;2023-03-01T01:20:34;19.87;;;10.07;;
69765;SDS011;57039;48.014;21.384;2023-03-01T01:21:38;15.93;;;9.20;;
69765;SDS011;57039;48.014;21.384;2023-03-01T01:22:42;19.65;;;9.82;;
69765;SDS011;57039;48.014;21.384;2023-03-01T01:23:46;18.50;;;10.25;;
69765;SDS011;57039;48.014;21.384;2023-03-01T01:24:50;19.55;;;9.95;;
69765;SDS011;57039;48.014;21.384;2023-03-01T01:25:52;19.08;;;9.68;;
69765;SDS011;57039;48.014;21.384;2023-03-01T01:26:56;17.83;;;10.17;;
69765;SDS011;57039;48.014;21.384;2023-03-01T01:27:59;21.90;;;10.07;;
69765;SDS011;57039;48.014;21.384;2023-03-01T01:29:03;19.95;;;10.60;;
69765;SDS011;57039;48.014;21.384;2023-03-01T01:30:07;19.80;;;9.13;;
69765;SDS011;57039;48.014;21.384;2023-03-01T01:31:13;21.20;;;11.10;;
69765;SDS011;57039;48.014;21.384;2023-03-01T01:32:17;20.70;;;10.55;;
69765;SDS011;57039;48.014;21.384;2023-03-01T01:33:20;20.12;;;10.57;;
69765;SDS011;57039;48.014;21.384;2023-03-01T01:34:23;20.40;;;10.95;;
69765;SDS011;57039;48.014;21.384;2023-03-01T01:35:26;18.95;;;9.85;;
69765;SDS011;57039;48.014;21.384;2023-03-01T01:36:30;19.83;;;10.60;;
69765;SDS011;57039;48.014;21.384;2023-03-01T01:37:35;18.47;;;10.03;;
69765;SDS011;57039;48.014;21.384;2023-03-01T01:38:38;17.50;;;10.23;;
69765;SDS011;57039;48.014;21.384;2023-03-01T01:39:41;18.80;;;10.35;;
69765;SDS011;57039;48.014;21.384;2023-03-01T01:40:47;21.40;;;11.12;;
69765;SDS011;57039;48.014;21.384;2023-03-01T01:41:51;19.73;;;10.65;;
69765;SDS011;57039;48.014;21.384;2023-03-01T01:42:54;19.98;;;11.07;;
69765;SDS011;57039;48.014;21.384;2023-03-01T01:45:30;19.50;;;10.52;;
69765;SDS011;57039;48.014;21.384;2023-03-01T01:46:38;18.42;;;9.93;;
69765;SDS011;57039;48.014;21.384;2023-03-01T01:47:45;20.65;;;10.38;;
69765;SDS011;57039;48.014;21.384;2023-03-01T01:48:52;21.30;;;9.23;;
69765;SDS011;57039;48.014;21.384;2023-03-01T01:49:59;18.90;;;10.03;;
69765;SDS011;57039;48.014;21.384;2023-03-01T01:51:02;18.65;;;10.55;;
69765;SDS011;57039;48.014;21.384;2023-03-01T01:53:38;18.37;;;10.52;;
69765;SDS011;57039;48.014;21.384;2023-03-01T01:55:03;22.67;;;11.10;;
69765;SDS011;57039;48.014;21.384;2023-03-01T01:56:06;21.05;;;10.13;;
69765;SDS011;57039;48.014;21.384;2023-03-01T01:57:14;21.73;;;10.55;;
69765;SDS011;57039;48.014;21.384;2023-03-01T01:58:22;20.88;;;10.52;;
69765;SDS011;57039;48.014;21.384;2023-03-01T01:59:29;18.75;;;10.77;;
69765;SDS011;57039;48.014;21.384;2023-03-01T02:00:35;18.20;;;10.13;;
69765;SDS011;57039;48.014;21.384;2023-03-01T02:01:41;21.23;;;11.23;;
69765;SDS011;57039;48.014;21.384;2023-03-01T02:02:45;20.30;;;11.25;;
69765;SDS011;57039;48.014;21.384;2023-03-01T02:03:51;19.95;;;10.98;;
69765;SDS011;57039;48.014;21.384;2023-03-01T02:04:58;20.50;;;9.55;;
69765;SDS011;57039;48.014;21.384;2023-03-01T02:07:20;21.17;;;10.32;;
69765;SDS011;57039;48.014;21.384;2023-03-01T02:08:26;21.90;;;10.93;;
69765;SDS011;57039;48.014;21.384;2023-03-01T02:09:34;20.90;;;9.93;;
69765;SDS011;57039;48.014;21.384;2023-03-01T02:10:38;19.27;;;10.07;;
69765;SDS011;57039;48.014;21.384;2023-03-01T02:11:41;18.53;;;10.17;;
69765;SDS011;57039;48.014;21.384;2023-03-01T02:12:46;22.67;;;11.43;;
69765;SDS011;57039;48.014;21.384;2023-03-01T02:13:49;21.58;;;10.63;;
69765;SDS011;57039;48.014;21.384;2023-03-01T02:14:53;21.20;;;9.98;;
69765;SDS011;57039;48.014;21.384;2023-03-01T02:15:55;19.77;;;10.02;;
69765;SDS011;57039;48.014;21.384;2023-03-01T02:16:58;21.67;;;10.60;;
69765;SDS011;57039;48.014;21.384;2023-03-01T02:18:02;20.23;;;11.10;;
69765;SDS011;57039;48.014;21.384;2023-03-01T02:19:07;20.17;;;10.50;;
69765;SDS011;57039;48.014;21.384;2023-03-01T02:23:08;47.70;;;16.87;;
69765;SDS011;57039;48.014;21.384;2023-03-01T02:24:33;117.00;;;37.37;;
69765;SDS011;57039;48.014;21.384;2023-03-01T02:26:45;80.62;;;31.67;;
69765;SDS011;57039;48.014;21.384;2023-03-01T02:29:18;39.28;;;20.77;;
69765;SDS011;57039;48.014;21.384;2023-03-01T02:30:21;35.15;;;17.02;;
69765;SDS011;57039;48.014;21.384;2023-03-01T02:31:26;26.98;;;13.52;;
69765;SDS011;57039;48.014;21.384;2023-03-01T02:32:45;33.13;;;19.15;;
69765;SDS011;57039;48.014;21.384;2023-03-01T02:33:49;32.92;;;18.83;;
69765;SDS011;57039;48.014;21.384;2023-03-01T02:34:54;29.63;;;16.40;;
69765;SDS011;57039;48.014;21.384;2023-03-01T02:36:06;23.67;;;13.00;;
69765;SDS011;57039;48.014;21.384;2023-03-01T02:37:16;27.15;;;12.57;;
69765;SDS011;57039;48.014;21.384;2023-03-01T02:38:32;23.33;;;11.40;;
69765;SDS011;57039;48.014;21.384;2023-03-01T02:39:46;23.10;;;12.35;;
69765;SDS011;57039;48.014;21.384;2023-03-01T02:40:52;22.15;;;11.50;;
69765;SDS011;57039;48.014;21.384;2023-03-01T02:41:57;23.65;;;12.05;;
69765;SDS011;57039;48.014;21.384;2023-03-01T02:43:02;24.50;;;11.80;;
69765;SDS011;57039;48.014;21.384;2023-03-01T02:44:10;23.02;;;10.63;;
69765;SDS011;57039;48.014;21.384;2023-03-01T02:45:13;20.65;;;11.02;;
69765;SDS011;57039;48.014;21.384;2023-03-01T02:46:17;20.27;;;10.73;;
69765;SDS011;57039;48.014;21.384;2023-03-01T02:47:22;21.03;;;12.07;;
69765;SDS011;57039;48.014;21.384;2023-03-01T02:48:26;19.73;;;10.88;;
69765;SDS011;57039;48.014;21.384;2023-03-01T02:49:32;21.48;;;10.65;;
69765;SDS011;57039;48.014;21.384;2023-03-01T02:56:12;53.53;;;24.95;;
69765;SDS011;57039;48.014;21.384;2023-03-01T02:57:16;42.42;;;21.40;;
69765;SDS011;57039;48.014;21.384;2023-03-01T02:58:20;51.07;;;24.40;;
69765;SDS011;57039;48.014;21.384;2023-03-01T02:59:26;29.93;;;15.27;;
69765;SDS011;57039;48.014;21.384;2023-03-01T03:00:38;19.98;;;11.52;;
69765;SDS011;57039;48.014;21.384;2023-03-01T03:01:48;20.58;;;10.45;;
69765;SDS011;57039;48.014;21.384;2023-03-01T03:02:51;20.48;;;11.12;;
69765;SDS011;57039;48.014;21.384;2023-03-01T03:03:55;17.52;;;10.10;;
69765;SDS011;57039;48.014;21.384;2023-03-01T03:04:59;19.23;;;10.50;;
69765;SDS011;57039;48.014;21.384;2023-03-01T03:06:02;18.52;;;10.80;;
69765;SDS011;57039;48.014;21.384;2023-03-01T03:07:05;20.73;;;11.05;;
69765;SDS011;57039;48.014;21.384;2023-03-01T03:08:08;20.25;;;11.30;;
69765;SDS011;57039;48.014;21.384;2023-03-01T03:09:12;19.13;;;10.53;;
69765;SDS011;57039;48.014;21.384;2023-03-01T03:10:20;22.80;;;9.97;;
69765;SDS011;57039;48.014;21.384;2023-03-01T03:11:25;18.90;;;10.15;;
69765;SDS011;57039;48.014;21.384;2023-03-01T03:12:29;20.12;;;10.52;;
69765;SDS011;57039;48.014;21.384;2023-03-01T03:13:32;23.52;;;11.50;;
69765;SDS011;57039;48.014;21.384;2023-03-01T03:14:35;33.08;;;14.63;;
69765;SDS011;57039;48.014;21.384;2023-03-01T03:15:38;25.65;;;13.27;;
69765;SDS011;57039;48.014;21.384;2023-03-01T03:16:43;31.25;;;14.63;;
69765;SDS011;57039;48.014;21.384;2023-03-01T03:17:50;21.67;;;11.55;;
69765;SDS011;57039;48.014;21.384;2023-03-01T03:18:55;22.02;;;11.77;;
69765;SDS011;57039;48.014;21.384;2023-03-01T03:20:08;24.70;;;12.17;;
69765;SDS011;57039;48.014;21.384;2023-03-01T03:21:15;21.37;;;11.33;;
69765;SDS011;57039;48.014;21.384;2023-03-01T03:22:18;21.08;;;10.90;;
69765;SDS011;57039;48.014;21.384;2023-03-01T03:23:21;20.48;;;11.18;;
69765;SDS011;57039;48.014;21.384;2023-03-01T03:24:24;21.65;;;11.30;;
69765;SDS011;57039;48.014;21.384;2023-03-01T03:25:27;21.55;;;11.70;;
69765;SDS011;57039;48.014;21.384;2023-03-01T03:26:31;20.12;;;10.35;;
69765;SDS011;57039;48.014;21.384;2023-03-01T03:27:35;20.30;;;10.57;;
69765;SDS011;57039;48.014;21.384;2023-03-01T03:28:38;20.80;;;11.15;;
69765;SDS011;57039;48.014;21.384;2023-03-01T03:29:42;21.17;;;11.32;;
69765;SDS011;57039;48.014;21.384;2023-03-01T03:30:45;22.23;;;11.50;;
69765;SDS011;57039;48.014;21.384;2023-03-01T03:31:49;20.30;;;10.70;;
69765;SDS011;57039;48.014;21.384;2023-03-01T03:32:52;19.58;;;10.15;;
69765;SDS011;57039;48.014;21.384;2023-03-01T03:33:55;18.48;;;10.55;;
69765;SDS011;57039;48.014;21.384;2023-03-01T03:34:59;21.62;;;10.60;;
69765;SDS011;57039;48.014;21.384;2023-03-01T03:36:01;19.85;;;10.63;;
69765;SDS011;57039;48.014;21.384;2023-03-01T03:37:06;21.50;;;10.75;;
69765;SDS011;57039;48.014;21.384;2023-03-01T03:38:28;19.87;;;10.23;;
69765;SDS011;57039;48.014;21.384;2023-03-01T03:39:31;21.48;;;10.00;;
69765;SDS011;57039;48.014;21.384;2023-03-01T03:40:38;18.83;;;10.45;;
69765;SDS011;57039;48.014;21.384;2023-03-01T03:41:42;20.57;;;10.50;;
69765;SDS011;57039;48.014;21.384;2023-03-01T03:42:45;21.00;;;10.73;;
69765;SDS011;57039;48.014;21.384;2023-03-01T03:43:48;19.02;;;9.95;;
69765;SDS011;57039;48.014;21.384;2023-03-01T03:44:51;21.33;;;10.05;;
69765;SDS011;57039;48.014;21.384;2023-03-01T03:45:54;20.25;;;10.82;;
69765;SDS011;57039;48.014;21.384;2023-03-01T03:46:56;23.67;;;11.18;;
69765;SDS011;57039;48.014;21.384;2023-03-01T03:48:00;19.58;;;10.30;;
69765;SDS011;57039;48.014;21.384;2023-03-01T03:49:05;18.95;;;10.50;;
69765;SDS011;57039;48.014;21.384;2023-03-01T03:50:11;22.60;;;11.12;;
69765;SDS011;57039;48.014;21.384;2023-03-01T03:51:17;21.75;;;11.05;;
69765;SDS011;57039;48.014;21.384;2023-03-01T03:52:20;21.03;;;10.80;;
69765;SDS011;57039;48.014;21.384;2023-03-01T03:53:25;20.20;;;10.40;;
69765;SDS011;57039;48.014;21.384;2023-03-01T03:54:29;22.33;;;10.93;;
69765;SDS011;57039;48.014;21.384;2023-03-01T03:55:32;19.87;;;11.10;;
69765;SDS011;57039;48.014;21.384;2023-03-01T03:56:36;21.92;;;10.60;;
69765;SDS011;57039;48.014;21.384;2023-03-01T03:57:41;18.73;;;10.40;;
69765;SDS011;57039;48.014;21.384;2023-03-01T03:58:46;18.67;;;10.23;;
69765;SDS011;57039;48.014;21.384;2023-03-01T03:59:49;20.48;;;11.05;;
69765;SDS011;57039;48.014;21.384;2023-03-01T04:00:53;18.87;;;10.30;;
69765;SDS011;57039;48.014;21.384;2023-03-01T04:02:00;22.27;;;11.35;;
69765;SDS011;57039;48.014;21.384;2023-03-01T04:03:03;21.63;;;11.03;;
69765;SDS011;57039;48.014;21.384;2023-03-01T04:04:07;21.87;;;11.37;;
69765;SDS011;57039;48.014;21.384;2023-03-01T04:05:11;22.33;;;10.50;;
69765;SDS011;57039;48.014;21.384;2023-03-01T04:06:15;20.12;;;11.27;;
69765;SDS011;57039;48.014;21.384;2023-03-01T04:07:18;20.12;;;10.88;;
69765;SDS011;57039;48.014;21.384;2023-03-01T04:08:22;21.10;;;10.73;;
69765;SDS011;57039;48.014;21.384;2023-03-01T04:09:25;19.67;;;10.40;;
69765;SDS011;57039;48.014;21.384;2023-03-01T04:10:29;17.95;;;9.82;;
69765;SDS011;57039;48.014;21.384;2023-03-01T04:11:33;19.58;;;9.82;;
69765;SDS011;57039;48.014;21.384;2023-03-01T04:12:37;21.45;;;10.85;;
69765;SDS011;57039;48.014;21.384;2023-03-01T04:13:40;21.37;;;11.03;;
69765;SDS011;57039;48.014;21.384;2023-03-01T04:14:42;22.73;;;12.57;;
69765;SDS011;57039;48.014;21.384;2023-03-01T04:15:48;23.65;;;12.30;;
69765;SDS011;57039;48.014;21.384;2023-03-01T04:16:52;22.85;;;12.40;;
69765;SDS011;57039;48.014;21.384;2023-03-01T04:17:56;21.50;;;11.73;;
69765;SDS011;57039;48.014;21.384;2023-03-01T04:18:59;22.98;;;12.25;;
69765;SDS011;57039;48.014;21.384;2023-03-01T04:20:02;24.58;;;13.25;;
69765;SDS011;57039;48.014;21.384;2023-03-01T04:21:08;23.75;;;13.35;;
69765;SDS011;57039;48.014;21.384;2023-03-01T04:22:10;24.48;;;12.95;;
69765;SDS011;57039;48.014;21.384;2023-03-01T04:23:19;26.77;;;15.07;;
69765;SDS011;57039;48.014;21.384;2023-03-01T04:24:25;28.87;;;14.53;;
69765;SDS011;57039;48.014;21.384;2023-03-01T04:25:28;29.05;;;14.95;;
69765;SDS011;57039;48.014;21.384;2023-03-01T04:26:32;29.15;;;15.20;;
69765;SDS011;57039;48.014;21.384;2023-03-01T04:27:35;28.60;;;14.60;;
69765;SDS011;57039;48.014;21.384;2023-03-01T04:28:40;29.80;;;16.00;;
69765;SDS011;57039;48.014;21.384;2023-03-01T04:29:48;24.90;;;13.50;;
69765;SDS011;57039;48.014;21.384;2023-03-01T04:30:51;25.25;;;13.00;;
69765;SDS011;57039;48.014;21.384;2023-03-01T04:31:55;26.23;;;13.23;;
69765;SDS011;57039;48.014;21.384;2023-03-01T04:32:58;21.60;;;11.10;;
69765;SDS011;57039;48.014;21.384;2023-03-01T04:34:01;22.37;;;11.00;;
69765;SDS011;57039;48.014;21.384;2023-03-01T04:35:05;24.27;;;11.13;;
69765;SDS011;57039;48.014;21.384;2023-03-01T04:36:08;19.07;;;11.03;;
69765;SDS011;57039;48.014;21.384;2023-03-01T04:37:12;19.12;;;10.77;;
69765;SDS011;57039;48.014;21.384;2023-03-01T04:38:20;20.08;;;10.88;;
69765;SDS011;57039;48.014;21.384;2023-03-01T04:39:23;22.35;;;10.73;;
69765;SDS011;57039;48.014;21.384;2023-03-01T04:40:26;20.45;;;10.23;;
69765;SDS011;57039;48.014;21.384;2023-03-01T04:41:29;19.58;;;10.27;;
69765;SDS011;57039;48.014;21.384;2023-03-01T04:42:33;20.62;;;11.68;;
69765;SDS011;57039;48.014;21.384;2023-03-01T04:43:36;22.33;;;11.63;;
69765;SDS011;57039;48.014;21.384;2023-03-01T04:44:39;21.12;;;11.55;;
69765;SDS011;57039;48.014;21.384;2023-03-01T04:45:42;19.80;;;9.97;;
69765;SDS011;57039;48.014;21.384;2023-03-01T04:46:48;32.00;;;15.20;;
69765;SDS011;57039;48.014;21.384;2023-03-01T04:47:52;19.60;;;9.88;;
69765;SDS011;57039;48.014;21.384;2023-03-01T04:48:56;22.62;;;11.45;;
69765;SDS011;57039;48.014;21.384;2023-03-01T04:49:59;20.85;;;11.55;;
69765;SDS011;57039;48.014;21.384;2023-03-01T04:51:02;21.25;;;10.93;;
69765;SDS011;57039;48.014;21.384;2023-03-01T04:52:06;19.45;;;10.25;;
69765;SDS011;57039;48.014;21.384;2023-03-01T04:53:09;20.35;;;10.75;;
69765;SDS011;57039;48.014;21.384;2023-03-01T04:54:11;20.92;;;10.75;;
69765;SDS011;57039;48.014;21.384;2023-03-01T04:55:15;23.67;;;10.95;;
69765;SDS011;57039;48.014;21.384;2023-03-01T04:56:18;19.80;;;10.63;;
69765;SDS011;57039;48.014;21.384;2023-03-01T04:57:20;20.70;;;11.80;;
69765;SDS011;57039;48.014;21.384;2023-03-01T04:58:24;20.45;;;10.45;;
69765;SDS011;57039;48.014;21.384;2023-03-01T04:59:28;22.42;;;11.12;;
69765;SDS011;57039;48.014;21.384;2023-03-01T05:00:32;21.42;;;11.45;;
69765;SDS011;57039;48.014;21.384;2023-03-01T05:01:34;28.52;;;14.80;;
69765;SDS011;57039;48.014;21.384;2023-03-01T05:02:37;20.48;;;11.05;;
69765;SDS011;57039;48.014;21.384;2023-03-01T05:03:44;21.83;;;12.27;;
69765;SDS011;57039;48.014;21.384;2023-03-01T05:04:47;165.60;;;71.50;;
69765;SDS011;57039;48.014;21.384;2023-03-01T05:05:51;30.02;;;15.90;;
69765;SDS011;57039;48.014;21.384;2023-03-01T05:06:55;21.77;;;11.77;;
69765;SDS011;57039;48.014;21.384;2023-03-01T05:08:02;20.10;;;11.30;;
69765;SDS011;57039;48.014;21.384;2023-03-01T05:09:08;21.02;;;11.70;;
69765;SDS011;57039;48.014;21.384;2023-03-01T05:10:11;20.25;;;10.65;;
69765;SDS011;57039;48.014;21.384;2023-03-01T05:11:15;22.58;;;10.57;;
69765;SDS011;57039;48.014;21.384;2023-03-01T05:12:17;23.60;;;11.57;;
69765;SDS011;57039;48.014;21.384;2023-03-01T05:13:20;30.45;;;15.68;;
69765;SDS011;57039;48.014;21.384;2023-03-01T05:14:23;50.15;;;25.30;;
69765;SDS011;57039;48.014;21.384;2023-03-01T05:15:26;26.00;;;13.57;;
69765;SDS011;57039;48.014;21.384;2023-03-01T05:16:30;73.07;;;31.85;;
69765;SDS011;57039;48.014;21.384;2023-03-01T05:17:37;29.30;;;14.70;;
69765;SDS011;57039;48.014;21.384;2023-03-01T05:18:41;20.27;;;10.70;;
69765;SDS011;57039;48.014;21.384;2023-03-01T05:19:44;20.88;;;10.52;;
69765;SDS011;57039;48.014;21.384;2023-03-01T05:20:48;20.70;;;10.75;;
69765;SDS011;57039;48.014;21.384;2023-03-01T05:21:51;18.87;;;9.98;;
69765;SDS011;57039;48.014;21.384;2023-03-01T05:23:06;29.75;;;13.30;;
69765;SDS011;57039;48.014;21.384;2023-03-01T05:24:09;36.55;;;17.62;;
69765;SDS011;57039;48.014;21.384;2023-03-01T05:25:13;36.85;;;18.58;;
69765;SDS011;57039;48.014;21.384;2023-03-01T05:26:18;34.72;;;17.45;;
69765;SDS011;57039;48.014;21.384;2023-03-01T05:27:30;39.92;;;19.33;;
69765;SDS011;57039;48.014;21.384;2023-03-01T05:28:34;31.40;;;15.17;;
69765;SDS011;57039;48.014;21.384;2023-03-01T05:29:37;25.85;;;13.38;;
69765;SDS011;57039;48.014;21.384;2023-03-01T05:30:41;27.37;;;13.77;;
69765;SDS011;57039;48.014;21.384;2023-03-01T05:31:44;29.40;;;14.13;;
69765;SDS011;57039;48.014;21.384;2023-03-01T05:32:48;30.33;;;14.27;;
69765;SDS011;57039;48.014;21.384;2023-03-01T05:33:52;38.15;;;14.55;;
69765;SDS011;57039;48.014;21.384;2023-03-01T05:34:55;34.72;;;15.25;;
69765;SDS011;57039;48.014;21.384;2023-03-01T05:35:59;31.98;;;14.20;;
69765;SDS011;57039;48.014;21.384;2023-03-01T05:37:03;34.28;;;15.70;;
69765;SDS011;57039;48.014;21.384;2023-03-01T05:38:11;34.97;;;15.73;;
69765;SDS011;57039;48.014;21.384;2023-03-01T05:39:22;44.70;;;17.20;;
69765;SDS011;57039;48.014;21.384;2023-03-01T05:40:26;51.08;;;19.33;;
69765;SDS011;57039;48.014;21.384;2023-03-01T05:41:30;122.18;;;46.08;;
69765;SDS011;57039;48.014;21.384;2023-03-01T05:42:32;155.18;;;51.53;;
69765;SDS011;57039;48.014;21.384;2023-03-01T05:43:35;116.90;;;41.35;;
69765;SDS011;57039;48.014;21.384;2023-03-01T05:44:38;126.25;;;41.67;;
69765;SDS011;57039;48.014;21.384;2023-03-01T05:45:41;149.27;;;48.30;;
69765;SDS011;57039;48.014;21.384;2023-03-01T05:46:44;117.00;;;42.33;;
69765;SDS011;57039;48.014;21.384;2023-03-01T05:47:47;125.70;;;42.83;;
69765;SDS011;57039;48.014;21.384;2023-03-01T05:48:51;143.87;;;44.70;;
69765;SDS011;57039;48.014;21.384;2023-03-01T05:49:54;98.53;;;33.83;;
69765;SDS011;57039;48.014;21.384;2023-03-01T05:50:59;54.13;;;20.73;;
69765;SDS011;57039;48.014;21.384;2023-03-01T05:52:03;39.03;;;16.85;;
69765;SDS011;57039;48.014;21.384;2023-03-01T05:53:07;37.15;;;15.90;;
69765;SDS011;57039;48.014;21.384;2023-03-01T05:54:14;31.15;;;15.52;;
69765;SDS011;57039;48.014;21.384;2023-03-01T05:55:19;51.95;;;24.15;;
69765;SDS011;57039;48.014;21.384;2023-03-01T05:56:22;106.12;;;39.08;;
69765;SDS011;57039;48.014;21.384;2023-03-01T05:57:27;159.68;;;56.50;;
69765;SDS011;57039;48.014;21.384;2023-03-01T05:58:32;232.20;;;86.43;;
69765;SDS011;57039;48.014;21.384;2023-03-01T05:59:35;273.00;;;100.60;;
69765;SDS011;57039;48.014;21.384;2023-03-01T06:00:39;213.33;;;76.20;;
69765;SDS011;57039;48.014;21.384;2023-03-01T06:01:43;163.55;;;57.00;;
69765;SDS011;57039;48.014;21.384;2023-03-01T06:02:46;150.50;;;49.85;;
69765;SDS011;57039;48.014;21.384;2023-03-01T06:03:49;136.25;;;44.92;;
69765;SDS011;57039;48.014;21.384;2023-03-01T06:04:51;106.95;;;39.47;;
69765;SDS011;57039;48.014;21.384;2023-03-01T06:05:57;87.72;;;31.30;;
69765;SDS011;57039;48.014;21.384;2023-03-01T06:07:01;109.78;;;37.15;;
69765;SDS011;57039;48.014;21.384;2023-03-01T06:08:04;115.80;;;42.25;;
69765;SDS011;57039;48.014;21.384;2023-03-01T06:09:08;188.43;;;71.18;;
69765;SDS011;57039;48.014;21.384;2023-03-01T06:10:12;89.87;;;34.08;;
69765;SDS011;57039;48.014;21.384;2023-03-01T06:11:15;66.73;;;25.00;;
69765;SDS011;57039;48.014;21.384;2023-03-01T06:12:18;64.40;;;28.02;;
69765;SDS011;57039;48.014;21.384;2023-03-01T06:13:22;72.05;;;33.58;;
69765;SDS011;57039;48.014;21.384;2023-03-01T06:14:25;37.67;;;15.73;;
69765;SDS011;57039;48.014;21.384;2023-03-01T06:15:28;29.33;;;12.30;;
69765;SDS011;57039;48.014;21.384;2023-03-01T06:16:31;26.20;;;11.70;;
69765;SDS011;57039;48.014;21.384;2023-03-01T06:17:35;22.37;;;10.88;;
69765;SDS011;57039;48.014;21.384;2023-03-01T06:18:41;28.35;;;12.77;;
69765;SDS011;57039;48.014;21.384;2023-03-01T06:19:46;51.40;;;18.55;;
69765;SDS011;57039;48.014;21.384;2023-03-01T06:20:53;38.78;;;16.23;;
69765;SDS011;57039;48.014;21.384;2023-03-01T06:22:01;39.23;;;17.50;;
69765;SDS011;57039;48.014;21.384;2023-03-01T06:23:04;20.27;;;10.30;;
69765;SDS011;57039;48.014;21.384;2023-03-01T06:24:07;21.00;;;10.50;;
69765;SDS011;57039;48.014;21.384;2023-03-01T06:25:11;27.77;;;11.65;;
69765;SDS011;57039;48.014;21.384;2023-03-01T06:26:16;24.02;;;12.52;;
69765;SDS011;57039;48.014;21.384;2023-03-01T06:27:18;22.70;;;11.05;;